Time;durP1;ratioP1;P1;durP2;ratioP2;P2;SDS_P1;SDS_P2;PMS_P1;PMS_P2;Temp;Humidity;BMP_temperature;BMP_pressure;BME280_temperature;BME280_humidity;BME280_pressure;Samples;Min_cycle;Max_cycle;Signal;HPM_P1;HPM_P2
2023/02/17 00:02:15;;;;;;;210.68;21.75;;;;;;;;;;5025395;28;20279;-59
2023/02/17 00:04:40;;;;;;;211.20;20.58;;;;;;;;;;5026717;28;20018;-58
2023/02/17 00:07:06;;;;;;;192.00;21.77;;;;;;;;;;5025053;28;20041;-58
2023/02/17 00:09:31;;;;;;;192.77;21.02;;;;;;;;;;5026497;28;20244;-59
2023/02/17 00:11:56;;;;;;;185.55;21.77;;;;;;;;;;5023238;28;20132;-59
2023/02/17 00:14:21;;;;;;;176.50;20.75;;;;;;;;;;5026418;28;20519;-59
2023/02/17 00:16:47;;;;;;;178.73;20.98;;;;;;;;;;5025594;28;20555;-59
2023/02/17 00:19:24;;;;;;;185.77;20.97;;;;;;;;;;5025187;28;20112;-59
2023/02/17 00:21:51;;;;;;;208.85;23.33;;;;;;;;;;5025668;28;20635;-58
2023/02/17 00:24:17;;;;;;;186.57;21.25;;;;;;;;;;5027306;28;20108;-58
2023/02/17 00:26:42;;;;;;;169.60;20.10;;;;;;;;;;5025268;28;20047;-58
2023/02/17 00:29:07;;;;;;;189.20;20.50;;;;;;;;;;5025520;28;20020;-58
2023/02/17 00:31:33;;;;;;;207.40;20.80;;;;;;;;;;5025319;28;20044;-60
2023/02/17 00:33:58;;;;;;;193.55;20.80;;;;;;;;;;5025491;28;20023;-58
2023/02/17 00:36:24;;;;;;;183.15;20.20;;;;;;;;;;5025718;28;20132;-58
2023/02/17 00:38:49;;;;;;;184.40;19.77;;;;;;;;;;5026967;28;20032;-58
2023/02/17 00:41:15;;;;;;;190.75;20.63;;;;;;;;;;5023993;28;20116;-58
2023/02/17 00:43:40;;;;;;;181.43;19.30;;;;;;;;;;5025153;28;20052;-58
2023/02/17 00:46:06;;;;;;;216.67;20.63;;;;;;;;;;5024958;28;20124;-58
2023/02/17 00:48:31;;;;;;;213.48;21.27;;;;;;;;;;5026548;28;20259;-58
2023/02/17 00:50:56;;;;;;;162.10;19.42;;;;;;;;;;5025451;28;20044;-58
2023/02/17 00:53:21;;;;;;;183.60;21.20;;;;;;;;;;5026707;28;20044;-58
2023/02/17 00:55:47;;;;;;;170.57;17.60;;;;;;;;;;5026009;28;20038;-58
2023/02/17 00:58:12;;;;;;;178.10;18.65;;;;;;;;;;5025526;28;20255;-57
2023/02/17 01:00:38;;;;;;;188.60;19.50;;;;;;;;;;5023820;28;20037;-58
2023/02/17 01:03:03;;;;;;;190.48;20.05;;;;;;;;;;5025132;28;20656;-57
2023/02/17 01:05:28;;;;;;;188.88;19.48;;;;;;;;;;5026583;28;20044;-58
2023/02/17 01:07:54;;;;;;;207.75;19.77;;;;;;;;;;5024468;28;20036;-58
2023/02/17 01:10:19;;;;;;;194.43;19.85;;;;;;;;;;5023400;28;20016;-58
2023/02/17 01:12:44;;;;;;;157.35;17.00;;;;;;;;;;5026053;28;20113;-57
2023/02/17 01:15:10;;;;;;;182.95;19.17;;;;;;;;;;5026286;28;20960;-58
2023/02/17 01:17:35;;;;;;;174.13;18.67;;;;;;;;;;5026528;28;20032;-58
2023/02/17 01:20:00;;;;;;;204.63;19.37;;;;;;;;;;5025120;28;20033;-58
2023/02/17 01:22:25;;;;;;;186.43;18.23;;;;;;;;;;5024695;28;20347;-58
2023/02/17 01:24:51;;;;;;;180.52;18.85;;;;;;;;;;5027305;28;20481;-58
2023/02/17 01:27:16;;;;;;;193.98;18.80;;;;;;;;;;5024929;28;20080;-57
2023/02/17 01:29:43;;;;;;;193.87;18.63;;;;;;;;;;5024169;28;20049;-58
2023/02/17 01:32:08;;;;;;;185.35;19.25;;;;;;;;;;5024666;28;20260;-58
2023/02/17 01:34:33;;;;;;;210.60;19.88;;;;;;;;;;5024053;28;20017;-58
2023/02/17 01:36:58;;;;;;;199.10;19.30;;;;;;;;;;5009111;28;20074;-57
2023/02/17 01:39:24;;;;;;;199.25;19.27;;;;;;;;;;5027268;28;20496;-58
2023/02/17 01:41:49;;;;;;;149.23;17.70;;;;;;;;;;5026976;28;20056;-58
2023/02/17 01:44:14;;;;;;;180.90;18.58;;;;;;;;;;5028099;28;20052;-57
2023/02/17 01:46:42;;;;;;;191.90;19.00;;;;;;;;;;5029858;28;20057;-57
2023/02/17 01:49:12;;;;;;;162.15;17.55;;;;;;;;;;5029547;28;20051;-58
2023/02/17 01:51:38;;;;;;;199.75;19.35;;;;;;;;;;5028424;28;20033;-57
2023/02/17 01:54:14;;;;;;;185.13;18.75;;;;;;;;;;5028975;28;20017;-58
2023/02/17 01:56:41;;;;;;;172.48;18.10;;;;;;;;;;5028816;28;20068;-58
2023/02/17 01:59:11;;;;;;;187.02;18.40;;;;;;;;;;5029764;28;20484;-58
2023/02/17 02:01:37;;;;;;;183.77;19.08;;;;;;;;;;5026717;28;20559;-57
2023/02/17 02:04:04;;;;;;;221.23;20.02;;;;;;;;;;5027642;28;20028;-58
2023/02/17 02:06:29;;;;;;;187.95;19.02;;;;;;;;;;5026048;28;20041;-57
2023/02/17 02:08:58;;;;;;;170.10;18.38;;;;;;;;;;5027281;28;20052;-58
2023/02/17 02:11:23;;;;;;;164.77;18.38;;;;;;;;;;5029083;28;20040;-58
2023/02/17 02:13:49;;;;;;;148.82;17.48;;;;;;;;;;5029139;28;20014;-58
2023/02/17 02:16:34;;;;;;;201.40;17.58;;;;;;;;;;5027917;28;20036;-58
2023/02/17 02:19:08;;;;;;;206.45;17.40;;;;;;;;;;5010542;28;20063;-58
2023/02/17 02:21:53;;;;;;;175.30;18.17;;;;;;;;;;5029339;28;20052;-58
2023/02/17 02:24:35;;;;;;;200.10;18.75;;;;;;;;;;5027047;28;20028;-58
2023/02/17 02:27:21;;;;;;;166.90;16.92;;;;;;;;;;5026982;28;20037;-57
2023/02/17 02:29:58;;;;;;;186.60;18.50;;;;;;;;;;4988318;28;20034;-57
2023/02/17 02:32:42;;;;;;;178.68;17.20;;;;;;;;;;5028687;28;20075;-57
2023/02/17 02:35:13;;;;;;;199.32;18.80;;;;;;;;;;5027096;28;20032;-57
2023/02/17 02:37:42;;;;;;;206.00;16.30;;;;;;;;;;5026448;28;20033;-58
2023/02/17 02:40:07;;;;;;;162.70;17.13;;;;;;;;;;5027230;28;20029;-58
2023/02/17 02:42:33;;;;;;;162.80;17.23;;;;;;;;;;5028497;28;20033;-58
2023/02/17 02:44:59;;;;;;;181.07;16.35;;;;;;;;;;5028588;28;20025;-58
2023/02/17 02:47:43;;;;;;;179.52;16.60;;;;;;;;;;5027877;28;20029;-57
2023/02/17 02:50:09;;;;;;;185.07;17.00;;;;;;;;;;5025958;28;20014;-58
2023/02/17 02:52:37;;;;;;;197.73;18.67;;;;;;;;;;5025240;28;20030;-57
2023/02/17 02:55:07;;;;;;;197.80;18.05;;;;;;;;;;5026512;28;20029;-57
2023/02/17 02:57:38;;;;;;;186.63;18.00;;;;;;;;;;5026232;28;20713;-57
2023/02/17 03:00:04;;;;;;;230.07;19.20;;;;;;;;;;5026564;28;20562;-57
2023/02/17 03:02:41;;;;;;;198.70;18.42;;;;;;;;;;5027876;28;20045;-58
2023/02/17 03:05:12;;;;;;;212.18;17.63;;;;;;;;;;5028259;28;20698;-57
2023/02/17 03:07:48;;;;;;;186.67;17.77;;;;;;;;;;5026226;28;20044;-58
2023/02/17 03:10:13;;;;;;;189.23;18.00;;;;;;;;;;5025265;28;20029;-57
2023/02/17 03:12:39;;;;;;;166.73;16.65;;;;;;;;;;5027100;28;20075;-57
2023/02/17 03:15:13;;;;;;;189.93;18.17;;;;;;;;;;5027555;28;20028;-58
2023/02/17 03:17:38;;;;;;;180.55;17.30;;;;;;;;;;5027667;28;20491;-57
2023/02/17 03:20:04;;;;;;;187.95;16.98;;;;;;;;;;5025599;28;20039;-58
2023/02/17 03:22:34;;;;;;;217.57;19.13;;;;;;;;;;5027095;28;20017;-58
2023/02/17 03:25:00;;;;;;;185.45;17.25;;;;;;;;;;5027641;28;20018;-59
2023/02/17 03:27:25;;;;;;;194.77;19.15;;;;;;;;;;5026950;28;20091;-58
2023/02/17 03:29:50;;;;;;;223.05;19.77;;;;;;;;;;5026544;28;20024;-58
2023/02/17 03:32:16;;;;;;;198.30;18.52;;;;;;;;;;5027260;28;20082;-57
2023/02/17 03:34:41;;;;;;;192.45;18.55;;;;;;;;;;5026657;28;20013;-57
2023/02/17 03:37:06;;;;;;;170.52;17.63;;;;;;;;;;5026484;28;20688;-58
2023/02/17 03:39:31;;;;;;;169.77;17.40;;;;;;;;;;5027254;28;20809;-57
2023/02/17 03:41:57;;;;;;;197.87;19.07;;;;;;;;;;5024410;28;20760;-58
2023/02/17 03:44:22;;;;;;;190.10;18.58;;;;;;;;;;5027199;28;20635;-56
2023/02/17 03:46:47;;;;;;;189.98;18.55;;;;;;;;;;5025543;28;20030;-56
2023/02/17 03:49:12;;;;;;;153.82;17.38;;;;;;;;;;5024829;28;20074;-57
2023/02/17 03:51:37;;;;;;;182.23;18.80;;;;;;;;;;5024642;28;20037;-56
2023/02/17 03:54:03;;;;;;;219.10;20.33;;;;;;;;;;5017992;28;20264;-57
2023/02/17 03:56:28;;;;;;;159.98;17.83;;;;;;;;;;5026217;28;20551;-57
2023/02/17 03:58:53;;;;;;;153.35;18.65;;;;;;;;;;5026727;28;20021;-58
2023/02/17 04:01:19;;;;;;;174.50;19.02;;;;;;;;;;5025786;28;20052;-57
2023/02/17 04:03:44;;;;;;;191.70;19.77;;;;;;;;;;5026876;28;20024;-57
2023/02/17 04:06:09;;;;;;;214.80;20.10;;;;;;;;;;5012877;28;20597;-57
2023/02/17 04:08:35;;;;;;;176.55;18.95;;;;;;;;;;5025526;28;20029;-56
2023/02/17 04:11:02;;;;;;;189.63;19.17;;;;;;;;;;5024084;28;20040;-58
2023/02/17 04:13:27;;;;;;;160.73;18.33;;;;;;;;;;5026787;28;20098;-57
2023/02/17 04:15:52;;;;;;;171.93;19.70;;;;;;;;;;5024379;28;20882;-57
2023/02/17 04:18:18;;;;;;;188.82;19.58;;;;;;;;;;5025928;28;20028;-56
2023/02/17 04:20:44;;;;;;;179.68;19.23;;;;;;;;;;5026875;28;20037;-57
2023/02/17 04:23:09;;;;;;;198.38;19.52;;;;;;;;;;5026992;28;20031;-58
2023/02/17 04:25:35;;;;;;;195.27;19.63;;;;;;;;;;5026553;28;20037;-57
2023/02/17 04:28:04;;;;;;;200.85;20.63;;;;;;;;;;5025445;28;20104;-57
2023/02/17 04:30:30;;;;;;;197.95;19.38;;;;;;;;;;5024729;28;20648;-57
2023/02/17 04:32:55;;;;;;;187.25;20.05;;;;;;;;;;5027219;28;20101;-57
2023/02/17 04:35:20;;;;;;;182.95;20.20;;;;;;;;;;5026441;28;20044;-57
2023/02/17 04:37:45;;;;;;;184.95;19.35;;;;;;;;;;5026151;28;20033;-56
2023/02/17 04:40:11;;;;;;;190.10;20.07;;;;;;;;;;5022716;28;20041;-58
2023/02/17 04:42:36;;;;;;;188.75;19.30;;;;;;;;;;5024402;28;20268;-57
2023/02/17 04:45:02;;;;;;;203.70;20.45;;;;;;;;;;5024701;28;20040;-57
2023/02/17 04:47:27;;;;;;;205.43;20.38;;;;;;;;;;5025673;28;20040;-56
2023/02/17 04:49:52;;;;;;;221.23;21.40;;;;;;;;;;5023967;28;20122;-56
2023/02/17 04:52:18;;;;;;;172.85;19.45;;;;;;;;;;5025472;28;20076;-56
2023/02/17 04:54:43;;;;;;;192.77;20.85;;;;;;;;;;5026057;28;20029;-56
2023/02/17 04:57:08;;;;;;;196.70;20.37;;;;;;;;;;5025308;28;20389;-57
2023/02/17 04:59:33;;;;;;;192.60;20.20;;;;;;;;;;5024734;28;21022;-57
2023/02/17 05:01:59;;;;;;;149.43;18.40;;;;;;;;;;5024674;28;20132;-57
2023/02/17 05:04:24;;;;;;;172.75;19.10;;;;;;;;;;5027150;28;20060;-58
2023/02/17 05:06:49;;;;;;;205.45;19.52;;;;;;;;;;5023783;28;20039;-57
2023/02/17 05:09:14;;;;;;;208.50;20.70;;;;;;;;;;5024084;28;20112;-56
2023/02/17 05:11:40;;;;;;;172.20;18.83;;;;;;;;;;5024714;28;20116;-56
2023/02/17 05:14:05;;;;;;;153.43;17.77;;;;;;;;;;5028153;28;20262;-56
2023/02/17 05:16:30;;;;;;;191.07;19.30;;;;;;;;;;5028128;28;20033;-57
2023/02/17 05:18:55;;;;;;;191.05;18.55;;;;;;;;;;5029835;28;20252;-56
2023/02/17 05:21:20;;;;;;;222.95;20.35;;;;;;;;;;5029458;28;20156;-56
2023/02/17 05:23:46;;;;;;;195.40;18.45;;;;;;;;;;5029269;28;20195;-58
2023/02/17 05:26:11;;;;;;;189.43;18.77;;;;;;;;;;5027990;28;20037;-57
2023/02/17 05:28:36;;;;;;;192.82;17.25;;;;;;;;;;5030367;28;20310;-57
2023/02/17 05:31:02;;;;;;;175.77;18.33;;;;;;;;;;5028227;28;20667;-57
2023/02/17 05:33:27;;;;;;;176.10;15.45;;;;;;;;;;5029709;28;20013;-58
2023/02/17 05:35:52;;;;;;;176.63;17.85;;;;;;;;;;5030438;28;20091;-57
2023/02/17 05:38:18;;;;;;;184.05;17.60;;;;;;;;;;5029600;28;20107;-57
2023/02/17 05:40:43;;;;;;;204.23;18.38;;;;;;;;;;5026529;28;20152;-58
2023/02/17 05:43:08;;;;;;;140.20;17.20;;;;;;;;;;5030161;28;20017;-58
2023/02/17 05:45:33;;;;;;;184.35;17.90;;;;;;;;;;5027814;28;20252;-58
2023/02/17 05:47:59;;;;;;;210.35;18.77;;;;;;;;;;5027106;28;20512;-58
2023/02/17 05:50:24;;;;;;;187.60;18.98;;;;;;;;;;5028332;28;20859;-58
2023/02/17 05:52:49;;;;;;;187.75;17.95;;;;;;;;;;5029163;28;20680;-58
2023/02/17 05:55:15;;;;;;;186.90;16.92;;;;;;;;;;5029727;28;20033;-59
2023/02/17 05:57:40;;;;;;;203.52;16.92;;;;;;;;;;5028965;28;20063;-58
2023/02/17 06:00:05;;;;;;;216.30;16.70;;;;;;;;;;5027402;28;20132;-60
2023/02/17 06:02:31;;;;;;;144.85;14.60;;;;;;;;;;5027873;28;20268;-57
2023/02/17 06:04:56;;;;;;;175.70;15.50;;;;;;;;;;5028998;28;20709;-57
2023/02/17 06:07:21;;;;;;;198.03;16.27;;;;;;;;;;5030014;28;20600;-58
2023/02/17 06:09:46;;;;;;;215.50;16.42;;;;;;;;;;5027639;28;20859;-57
2023/02/17 06:12:12;;;;;;;174.82;15.43;;;;;;;;;;5028068;28;20030;-58
2023/02/17 06:14:37;;;;;;;145.48;13.70;;;;;;;;;;5027713;28;20028;-57
2023/02/17 06:17:02;;;;;;;165.75;14.15;;;;;;;;;;5027657;28;20048;-58
2023/02/17 06:19:28;;;;;;;142.48;13.32;;;;;;;;;;5028063;28;20025;-58
2023/02/17 06:21:55;;;;;;;164.95;13.93;;;;;;;;;;5026222;28;20065;-58
2023/02/17 06:24:20;;;;;;;162.80;13.55;;;;;;;;;;5026262;28;20520;-58
2023/02/17 06:26:45;;;;;;;164.52;13.13;;;;;;;;;;5027073;28;20041;-58
2023/02/17 06:29:11;;;;;;;148.63;12.80;;;;;;;;;;5027193;28;20017;-59
2023/02/17 06:31:36;;;;;;;163.73;12.13;;;;;;;;;;5027863;28;20264;-58
2023/02/17 06:34:01;;;;;;;159.03;10.83;;;;;;;;;;5028457;28;20444;-58
2023/02/17 06:36:26;;;;;;;169.07;13.80;;;;;;;;;;5027060;28;20624;-59
2023/02/17 06:38:51;;;;;;;167.23;13.32;;;;;;;;;;5011462;28;20025;-58
2023/02/17 06:41:17;;;;;;;180.65;13.63;;;;;;;;;;5025854;28;20076;-57
2023/02/17 06:43:42;;;;;;;192.05;14.23;;;;;;;;;;5028155;28;20488;-58
2023/02/17 06:46:07;;;;;;;167.40;12.38;;;;;;;;;;5027678;28;20196;-58
2023/02/17 06:48:33;;;;;;;143.18;10.55;;;;;;;;;;5027105;28;20048;-58
2023/02/17 06:50:59;;;;;;;165.00;11.95;;;;;;;;;;5027573;28;20052;-58
2023/02/17 06:53:25;;;;;;;143.60;9.48;;;;;;;;;;5028648;28;20024;-57
2023/02/17 06:55:50;;;;;;;163.05;10.85;;;;;;;;;;5026639;28;20029;-58
2023/02/17 06:58:15;;;;;;;187.10;10.30;;;;;;;;;;5029856;28;20021;-57
2023/02/17 07:00:40;;;;;;;180.38;9.98;;;;;;;;;;5027928;28;20347;-57
2023/02/17 07:03:06;;;;;;;168.67;9.43;;;;;;;;;;5027335;28;20036;-57
2023/02/17 07:05:33;;;;;;;140.75;10.63;;;;;;;;;;5028116;28;20251;-57
2023/02/17 07:07:58;;;;;;;181.32;11.48;;;;;;;;;;5026517;28;20068;-58
2023/02/17 07:10:24;;;;;;;180.10;11.13;;;;;;;;;;5026359;28;20132;-58
2023/02/17 07:12:49;;;;;;;154.35;9.80;;;;;;;;;;5027844;28;20113;-58
2023/02/17 07:15:15;;;;;;;162.38;9.02;;;;;;;;;;5026935;28;20071;-59
2023/02/17 07:17:40;;;;;;;149.60;8.20;;;;;;;;;;5027092;28;20021;-58
2023/02/17 07:20:06;;;;;;;161.18;9.05;;;;;;;;;;5026423;28;20029;-58
2023/02/17 07:22:31;;;;;;;153.43;9.70;;;;;;;;;;5027959;28;20466;-59
2023/02/17 07:24:56;;;;;;;141.87;8.30;;;;;;;;;;5028197;28;20021;-58
2023/02/17 07:27:21;;;;;;;149.67;8.43;;;;;;;;;;5028037;28;20276;-57
2023/02/17 07:29:46;;;;;;;213.38;10.45;;;;;;;;;;5027119;28;20252;-58
2023/02/17 07:32:12;;;;;;;151.18;8.50;;;;;;;;;;5025598;28;20029;-57
2023/02/17 07:34:37;;;;;;;149.30;7.93;;;;;;;;;;5027083;28;20121;-57
2023/02/17 07:37:02;;;;;;;139.70;6.82;;;;;;;;;;5023817;28;20812;-57
2023/02/17 07:39:28;;;;;;;145.10;7.10;;;;;;;;;;5025857;28;20029;-58
2023/02/17 07:41:53;;;;;;;154.40;8.25;;;;;;;;;;5023845;28;20282;-58
2023/02/17 07:44:18;;;;;;;153.83;8.13;;;;;;;;;;5026933;28;20030;-58
2023/02/17 07:46:43;;;;;;;158.38;7.78;;;;;;;;;;5024749;28;20276;-59
2023/02/17 07:49:09;;;;;;;165.05;8.43;;;;;;;;;;5026931;28;20139;-58
2023/02/17 07:51:34;;;;;;;140.40;7.38;;;;;;;;;;5026295;28;20037;-58
2023/02/17 07:54:00;;;;;;;141.77;7.80;;;;;;;;;;5024615;28;20554;-58
2023/02/17 07:56:28;;;;;;;131.20;7.32;;;;;;;;;;5024518;28;20037;-58
2023/02/17 07:58:53;;;;;;;159.57;8.38;;;;;;;;;;5027622;28;20598;-59
2023/02/17 08:01:20;;;;;;;159.45;7.53;;;;;;;;;;5023705;28;20966;-58
2023/02/17 08:03:46;;;;;;;151.88;7.47;;;;;;;;;;5026866;28;20021;-58
2023/02/17 08:06:13;;;;;;;145.57;8.13;;;;;;;;;;5026730;28;20059;-59
2023/02/17 08:14:06;;;;;;;160.65;8.43;;;;;;;;;;5025809;28;20060;-58
2023/02/17 08:16:31;;;;;;;155.65;7.68;;;;;;;;;;5024762;28;20045;-59
2023/02/17 08:18:56;;;;;;;142.20;7.43;;;;;;;;;;5026820;28;20032;-59
2023/02/17 08:21:22;;;;;;;126.75;7.10;;;;;;;;;;5025722;28;20473;-58
2023/02/17 08:23:47;;;;;;;177.15;8.70;;;;;;;;;;5024274;28;20055;-58
2023/02/17 08:26:13;;;;;;;121.28;6.65;;;;;;;;;;5024422;28;20075;-58
2023/02/17 08:28:39;;;;;;;146.50;7.15;;;;;;;;;;5024642;28;20096;-59
2023/02/17 08:31:04;;;;;;;129.27;6.93;;;;;;;;;;5026626;28;20033;-59
2023/02/17 08:33:29;;;;;;;159.15;7.88;;;;;;;;;;5015927;28;20681;-59
2023/02/17 08:35:54;;;;;;;143.57;7.67;;;;;;;;;;5024424;28;20026;-59
2023/02/17 08:38:20;;;;;;;144.87;7.27;;;;;;;;;;5026918;28;20315;-59
2023/02/17 08:40:45;;;;;;;134.18;6.93;;;;;;;;;;5024931;28;20374;-59
2023/02/17 08:43:10;;;;;;;139.23;7.35;;;;;;;;;;5026795;28;20649;-59
2023/02/17 08:45:36;;;;;;;150.60;7.22;;;;;;;;;;5024777;28;20330;-59
2023/02/17 08:48:02;;;;;;;157.95;8.23;;;;;;;;;;5024717;28;20020;-59
2023/02/17 08:50:28;;;;;;;154.18;7.97;;;;;;;;;;5024318;28;20032;-60
2023/02/17 08:52:53;;;;;;;148.10;7.65;;;;;;;;;;5026037;28;20018;-60
2023/02/17 08:55:19;;;;;;;152.77;7.40;;;;;;;;;;5026340;28;20598;-60
2023/02/17 08:57:44;;;;;;;159.35;7.60;;;;;;;;;;5026918;28;20017;-57
2023/02/17 09:00:09;;;;;;;157.30;7.43;;;;;;;;;;5024709;28;20028;-57
2023/02/17 09:02:36;;;;;;;140.65;7.28;;;;;;;;;;5026482;28;20993;-58
2023/02/17 09:05:02;;;;;;;154.95;7.65;;;;;;;;;;5024938;28;20692;-59
2023/02/17 09:07:27;;;;;;;165.50;8.48;;;;;;;;;;5025340;28;20040;-60
2023/02/17 09:09:52;;;;;;;195.25;9.65;;;;;;;;;;5025428;28;20033;-59
2023/02/17 09:12:17;;;;;;;142.17;7.37;;;;;;;;;;5023843;28;20029;-58
2023/02/17 09:14:42;;;;;;;157.70;8.20;;;;;;;;;;5025616;28;20254;-59
2023/02/17 09:17:09;;;;;;;160.63;8.17;;;;;;;;;;5028253;28;20029;-58
2023/02/17 09:19:37;;;;;;;127.35;6.70;;;;;;;;;;5024734;28;20263;-59
2023/02/17 09:22:02;;;;;;;136.93;7.85;;;;;;;;;;5024812;28;20551;-59
2023/02/17 09:24:27;;;;;;;143.98;8.18;;;;;;;;;;5024840;28;20036;-58
2023/02/17 09:26:52;;;;;;;161.80;7.75;;;;;;;;;;5024489;28;20562;-58
2023/02/17 09:29:18;;;;;;;172.00;7.97;;;;;;;;;;5015786;28;20104;-60
2023/02/17 09:31:44;;;;;;;135.70;6.80;;;;;;;;;;5023346;28;20291;-58
2023/02/17 09:34:10;;;;;;;144.68;7.03;;;;;;;;;;5025583;28;20263;-60
2023/02/17 09:36:38;;;;;;;121.23;5.80;;;;;;;;;;5023581;28;20037;-59
2023/02/17 09:39:04;;;;;;;145.40;7.20;;;;;;;;;;5025017;28;20257;-58
2023/02/17 09:41:41;;;;;;;136.95;6.53;;;;;;;;;;5025241;28;20056;-59
2023/02/17 09:44:16;;;;;;;127.90;7.25;;;;;;;;;;5025887;28;20056;-59
2023/02/17 09:46:44;;;;;;;135.13;7.20;;;;;;;;;;5026321;28;20146;-58
2023/02/17 09:49:12;;;;;;;170.85;7.93;;;;;;;;;;5026519;28;20013;-58
2023/02/17 09:51:50;;;;;;;138.25;6.90;;;;;;;;;;5023935;28;20036;-59
2023/02/17 09:54:18;;;;;;;174.23;7.95;;;;;;;;;;5018225;28;20032;-59
2023/02/17 09:56:47;;;;;;;147.90;7.78;;;;;;;;;;5023686;28;20596;-60
2023/02/17 09:59:19;;;;;;;161.90;8.75;;;;;;;;;;5025610;28;20075;-58
2023/02/17 10:01:44;;;;;;;141.27;8.40;;;;;;;;;;5027615;28;20808;-59
2023/02/17 10:04:19;;;;;;;145.70;7.75;;;;;;;;;;5030686;28;20028;-59
2023/02/17 10:06:47;;;;;;;139.93;7.93;;;;;;;;;;5028526;28;20041;-59
2023/02/17 10:09:15;;;;;;;140.65;8.13;;;;;;;;;;5029385;28;20056;-58
2023/02/17 10:11:52;;;;;;;147.60;7.00;;;;;;;;;;5026821;28;20033;-58
2023/02/17 10:14:21;;;;;;;152.45;7.22;;;;;;;;;;5028618;28;20487;-58
2023/02/17 10:16:48;;;;;;;170.48;7.68;;;;;;;;;;5027314;28;20115;-58
2023/02/17 10:19:17;;;;;;;158.18;7.43;;;;;;;;;;5028990;28;20118;-58
2023/02/17 10:21:47;;;;;;;170.82;7.32;;;;;;;;;;5028871;28;20044;-60
2023/02/17 10:24:12;;;;;;;146.95;7.43;;;;;;;;;;5029552;28;20029;-59
2023/02/17 10:26:59;;;;;;;134.27;6.68;;;;;;;;;;5026509;28;20416;-58
2023/02/17 10:29:33;;;;;;;169.15;8.27;;;;;;;;;;5027949;28;20021;-58
2023/02/17 10:32:09;;;;;;;158.57;7.35;;;;;;;;;;5027855;28;20033;-61
2023/02/17 10:34:36;;;;;;;149.18;8.52;;;;;;;;;;5028546;28;20013;-58
2023/02/17 10:37:23;;;;;;;159.30;8.43;;;;;;;;;;5029360;28;20072;-58
2023/02/17 10:39:50;;;;;;;195.65;9.05;;;;;;;;;;5028802;28;20896;-59
2023/02/17 10:42:20;;;;;;;139.10;7.72;;;;;;;;;;5027748;28;20029;-59
2023/02/17 10:44:47;;;;;;;179.77;8.45;;;;;;;;;;5029960;28;20071;-59
2023/02/17 10:47:14;;;;;;;167.45;8.07;;;;;;;;;;5026834;28;20044;-59
2023/02/17 10:49:42;;;;;;;172.40;7.88;;;;;;;;;;5026617;28;20013;-58
2023/02/17 10:52:12;;;;;;;126.53;6.18;;;;;;;;;;5027466;28;20037;-58
2023/02/17 10:54:40;;;;;;;132.00;6.88;;;;;;;;;;5029279;28;20029;-58
2023/02/17 10:57:07;;;;;;;122.57;6.93;;;;;;;;;;5027301;28;20125;-59
2023/02/17 10:59:35;;;;;;;105.40;5.95;;;;;;;;;;5028553;28;20025;-58
2023/02/17 11:02:14;;;;;;;150.40;7.25;;;;;;;;;;5025763;28;20041;-58
2023/02/17 11:04:43;;;;;;;143.10;6.50;;;;;;;;;;5027837;28;20163;-58
2023/02/17 11:07:13;;;;;;;155.55;7.57;;;;;;;;;;5027565;28;20034;-58
2023/02/17 11:09:43;;;;;;;193.63;8.32;;;;;;;;;;5026401;28;20060;-57
2023/02/17 11:12:24;;;;;;;141.65;7.32;;;;;;;;;;5018841;28;20124;-58
2023/02/17 11:14:50;;;;;;;168.65;7.72;;;;;;;;;;5028727;28;20434;-58
2023/02/17 11:17:16;;;;;;;167.50;7.65;;;;;;;;;;5027201;28;20095;-57
2023/02/17 11:19:41;;;;;;;209.05;9.38;;;;;;;;;;5027148;28;20037;-58
2023/02/17 11:22:25;;;;;;;140.55;7.25;;;;;;;;;;5027679;28;20035;-57
2023/02/17 11:24:57;;;;;;;154.50;7.20;;;;;;;;;;5026566;28;20987;-58
2023/02/17 11:27:24;;;;;;;148.88;6.97;;;;;;;;;;5025872;28;20905;-57
2023/02/17 11:29:49;;;;;;;193.40;8.77;;;;;;;;;;5027785;28;20558;-59
2023/02/17 11:32:14;;;;;;;144.73;6.77;;;;;;;;;;5025313;28;20034;-58
2023/02/17 11:34:40;;;;;;;143.47;6.90;;;;;;;;;;5027526;28;20264;-58
2023/02/17 11:37:12;;;;;;;160.70;7.72;;;;;;;;;;5027154;28;20275;-59
2023/02/17 11:39:38;;;;;;;152.73;7.40;;;;;;;;;;5025425;28;20508;-58
2023/02/17 11:42:13;;;;;;;158.77;6.97;;;;;;;;;;5025554;28;20041;-58
2023/02/17 11:44:38;;;;;;;143.93;7.03;;;;;;;;;;5026875;28;20043;-58
2023/02/17 11:47:06;;;;;;;136.00;6.67;;;;;;;;;;5026153;28;20037;-59
2023/02/17 11:49:39;;;;;;;141.65;7.05;;;;;;;;;;5025609;28;20294;-59
2023/02/17 11:52:28;;;;;;;119.38;5.82;;;;;;;;;;5008808;28;20064;-59
2023/02/17 11:55:06;;;;;;;168.75;7.88;;;;;;;;;;5027644;28;20048;-59
2023/02/17 11:57:44;;;;;;;166.25;8.30;;;;;;;;;;5027418;28;20044;-58
2023/02/17 12:00:12;;;;;;;147.27;7.68;;;;;;;;;;5023171;28;20076;-58
2023/02/17 12:02:37;;;;;;;145.05;8.05;;;;;;;;;;5027723;28;20036;-58
2023/02/17 12:05:02;;;;;;;140.43;8.10;;;;;;;;;;5025102;28;20025;-58
2023/02/17 12:07:34;;;;;;;156.13;8.13;;;;;;;;;;5024983;28;20624;-58
2023/02/17 12:10:08;;;;;;;142.50;7.57;;;;;;;;;;5016417;28;20264;-58
2023/02/17 12:12:40;;;;;;;133.27;5.95;;;;;;;;;;5026906;28;20099;-57
2023/02/17 12:15:24;;;;;;;139.90;7.47;;;;;;;;;;5027800;28;20024;-57
2023/02/17 12:18:01;;;;;;;182.65;8.45;;;;;;;;;;5026472;28;20037;-57
2023/02/17 12:20:48;;;;;;;141.32;7.13;;;;;;;;;;5026287;28;20049;-58
2023/02/17 12:23:13;;;;;;;128.60;7.40;;;;;;;;;;5025012;28;20032;-58
2023/02/17 12:25:43;;;;;;;111.53;6.20;;;;;;;;;;5026066;28;20034;-58
2023/02/17 12:28:24;;;;;;;148.20;7.40;;;;;;;;;;5026317;28;20276;-58
2023/02/17 12:31:01;;;;;;;141.63;6.53;;;;;;;;;;5024582;28;20033;-58
2023/02/17 12:33:46;;;;;;;152.20;6.40;;;;;;;;;;5026054;28;20029;-58
2023/02/17 12:36:13;;;;;;;163.98;7.43;;;;;;;;;;5009846;28;20025;-58
2023/02/17 12:38:45;;;;;;;157.50;7.53;;;;;;;;;;5026404;28;20436;-58
2023/02/17 12:41:13;;;;;;;191.80;8.83;;;;;;;;;;5024204;28;20025;-59
2023/02/17 12:43:41;;;;;;;148.93;7.53;;;;;;;;;;5027061;28;20030;-59
2023/02/17 12:46:09;;;;;;;158.90;7.93;;;;;;;;;;5025976;28;20504;-58
2023/02/17 12:48:37;;;;;;;139.02;6.40;;;;;;;;;;5026921;28;20067;-59
2023/02/17 12:51:08;;;;;;;133.27;7.60;;;;;;;;;;5024206;28;20043;-59
2023/02/17 12:53:39;;;;;;;114.65;6.50;;;;;;;;;;5024451;28;20045;-59
2023/02/17 12:56:16;;;;;;;114.50;6.35;;;;;;;;;;5026436;28;20037;-60
2023/02/17 12:58:41;;;;;;;144.05;7.70;;;;;;;;;;5026253;28;20029;-60
2023/02/17 13:01:12;;;;;;;135.98;6.90;;;;;;;;;;5024463;28;20033;-59
2023/02/17 13:03:38;;;;;;;146.20;6.53;;;;;;;;;;5025933;28;20105;-58
2023/02/17 13:06:15;;;;;;;136.20;6.50;;;;;;;;;;5024036;28;20186;-59
2023/02/17 13:09:04;;;;;;;148.40;7.22;;;;;;;;;;5008021;28;20022;-58
2023/02/17 13:11:31;;;;;;;143.68;7.43;;;;;;;;;;5012313;28;20546;-59
2023/02/17 13:13:57;;;;;;;133.40;6.68;;;;;;;;;;5024321;28;20123;-58
2023/02/17 13:16:23;;;;;;;149.38;6.70;;;;;;;;;;5025136;28;20102;-58
2023/02/17 13:18:50;;;;;;;160.55;6.97;;;;;;;;;;5024857;28;20332;-59
2023/02/17 13:21:15;;;;;;;164.23;7.63;;;;;;;;;;5025149;28;20048;-59
2023/02/17 13:23:41;;;;;;;144.93;6.85;;;;;;;;;;5025583;28;20021;-59
2023/02/17 13:26:09;;;;;;;143.43;6.47;;;;;;;;;;5025281;28;20459;-58
2023/02/17 13:28:36;;;;;;;129.27;5.63;;;;;;;;;;5026895;28;20108;-57
2023/02/17 13:31:27;;;;;;;152.95;7.13;;;;;;;;;;5024293;28;20490;-58
2023/02/17 13:33:54;;;;;;;137.60;6.43;;;;;;;;;;5021697;28;20033;-59
2023/02/17 13:36:31;;;;;;;155.93;6.80;;;;;;;;;;5027344;28;20265;-58
2023/02/17 13:38:59;;;;;;;146.95;6.60;;;;;;;;;;5029109;28;20036;-57
2023/02/17 13:41:24;;;;;;;149.63;6.38;;;;;;;;;;5028611;28;20025;-57
2023/02/17 13:43:50;;;;;;;154.18;6.70;;;;;;;;;;5029942;28;20041;-57
2023/02/17 13:46:22;;;;;;;162.50;7.15;;;;;;;;;;5026715;28;20314;-58
2023/02/17 13:48:56;;;;;;;156.55;7.13;;;;;;;;;;5028758;28;20079;-60
2023/02/17 13:51:26;;;;;;;180.70;7.88;;;;;;;;;;5028876;28;20041;-58
2023/02/17 13:53:52;;;;;;;145.73;6.90;;;;;;;;;;5029932;28;20416;-58
2023/02/17 13:56:27;;;;;;;167.95;7.57;;;;;;;;;;5027086;28;20484;-58
2023/02/17 13:58:53;;;;;;;131.63;5.75;;;;;;;;;;5029673;28;20037;-58
2023/02/17 14:01:21;;;;;;;133.98;6.80;;;;;;;;;;5027982;28;20033;-58
2023/02/17 14:03:50;;;;;;;144.75;6.75;;;;;;;;;;5013414;28;20026;-58
2023/02/17 14:06:21;;;;;;;124.15;6.00;;;;;;;;;;5027160;28;20037;-58
2023/02/17 14:08:47;;;;;;;139.68;6.47;;;;;;;;;;5028397;28;20017;-58
2023/02/17 14:11:12;;;;;;;116.97;5.57;;;;;;;;;;5028120;28;20040;-58
2023/02/17 14:13:40;;;;;;;151.00;6.77;;;;;;;;;;5026579;28;20014;-58
2023/02/17 14:16:05;;;;;;;154.38;7.00;;;;;;;;;;5028799;28;20264;-58
2023/02/17 14:18:35;;;;;;;143.10;6.55;;;;;;;;;;5029183;28;20027;-58
2023/02/17 14:21:21;;;;;;;135.68;6.10;;;;;;;;;;5030241;28;20029;-58